sensor_id;sensor_type;location;lat;lon;timestamp;P1;durP1;ratioP1;P2;durP2;ratioP2
45944;SDS011;31655;48.972;10.686;2023-05-14T00:00:22;18.38;;;10.65;;
45944;SDS011;31655;48.972;10.686;2023-05-14T00:02:48;18.00;;;11.73;;
45944;SDS011;31655;48.972;10.686;2023-05-14T00:05:14;14.55;;;9.82;;
45944;SDS011;31655;48.972;10.686;2023-05-14T00:07:40;15.35;;;10.95;;
45944;SDS011;31655;48.972;10.686;2023-05-14T00:10:05;17.98;;;10.30;;
45944;SDS011;31655;48.972;10.686;2023-05-14T00:12:31;23.70;;;13.60;;
45944;SDS011;31655;48.972;10.686;2023-05-14T00:14:57;26.10;;;15.15;;
45944;SDS011;31655;48.972;10.686;2023-05-14T00:17:23;30.27;;;14.27;;
45944;SDS011;31655;48.972;10.686;2023-05-14T00:19:49;17.25;;;10.65;;
45944;SDS011;31655;48.972;10.686;2023-05-14T00:22:16;24.45;;;14.20;;
45944;SDS011;31655;48.972;10.686;2023-05-14T00:24:42;26.30;;;14.77;;
45944;SDS011;31655;48.972;10.686;2023-05-14T00:27:07;23.90;;;14.10;;
45944;SDS011;31655;48.972;10.686;2023-05-14T00:29:33;16.75;;;11.32;;
45944;SDS011;31655;48.972;10.686;2023-05-14T00:31:59;21.15;;;12.15;;
45944;SDS011;31655;48.972;10.686;2023-05-14T00:34:25;14.75;;;9.85;;
45944;SDS011;31655;48.972;10.686;2023-05-14T00:36:51;17.83;;;11.20;;
45944;SDS011;31655;48.972;10.686;2023-05-14T00:39:17;15.25;;;10.98;;
45944;SDS011;31655;48.972;10.686;2023-05-14T00:41:43;17.58;;;11.15;;
45944;SDS011;31655;48.972;10.686;2023-05-14T00:44:08;19.40;;;11.85;;
45944;SDS011;31655;48.972;10.686;2023-05-14T00:46:34;22.67;;;13.02;;
45944;SDS011;31655;48.972;10.686;2023-05-14T00:49:00;18.90;;;11.77;;
45944;SDS011;31655;48.972;10.686;2023-05-14T00:51:26;15.55;;;10.30;;
45944;SDS011;31655;48.972;10.686;2023-05-14T00:53:51;25.58;;;15.23;;
45944;SDS011;31655;48.972;10.686;2023-05-14T00:56:17;16.95;;;10.73;;
45944;SDS011;31655;48.972;10.686;2023-05-14T00:58:43;18.08;;;11.20;;
45944;SDS011;31655;48.972;10.686;2023-05-14T01:01:09;15.10;;;9.82;;
45944;SDS011;31655;48.972;10.686;2023-05-14T01:03:38;19.17;;;10.70;;
45944;SDS011;31655;48.972;10.686;2023-05-14T01:06:25;21.67;;;14.02;;
45944;SDS011;31655;48.972;10.686;2023-05-14T01:09:28;15.30;;;10.30;;
45944;SDS011;31655;48.972;10.686;2023-05-14T01:12:07;19.80;;;11.80;;
45944;SDS011;31655;48.972;10.686;2023-05-14T01:14:56;20.92;;;12.70;;
45944;SDS011;31655;48.972;10.686;2023-05-14T01:17:29;27.27;;;15.60;;
45944;SDS011;31655;48.972;10.686;2023-05-14T01:19:57;23.02;;;14.35;;
45944;SDS011;31655;48.972;10.686;2023-05-14T01:22:24;16.33;;;10.73;;
45944;SDS011;31655;48.972;10.686;2023-05-14T01:24:50;20.55;;;14.35;;
45944;SDS011;31655;48.972;10.686;2023-05-14T01:27:17;19.65;;;12.85;;
45944;SDS011;31655;48.972;10.686;2023-05-14T01:32:25;23.23;;;13.50;;
45944;SDS011;31655;48.972;10.686;2023-05-14T01:34:52;19.30;;;12.48;;
45944;SDS011;31655;48.972;10.686;2023-05-14T01:37:19;17.35;;;12.20;;
45944;SDS011;31655;48.972;10.686;2023-05-14T01:39:46;28.98;;;16.30;;
45944;SDS011;31655;48.972;10.686;2023-05-14T01:42:13;20.38;;;12.20;;
45944;SDS011;31655;48.972;10.686;2023-05-14T01:44:39;26.30;;;13.55;;
45944;SDS011;31655;48.972;10.686;2023-05-14T01:47:05;22.70;;;11.70;;
45944;SDS011;31655;48.972;10.686;2023-05-14T01:49:31;19.45;;;12.50;;
45944;SDS011;31655;48.972;10.686;2023-05-14T01:51:57;19.10;;;11.65;;
45944;SDS011;31655;48.972;10.686;2023-05-14T01:54:22;18.40;;;11.43;;
45944;SDS011;31655;48.972;10.686;2023-05-14T01:56:48;22.30;;;12.20;;
45944;SDS011;31655;48.972;10.686;2023-05-14T01:59:13;28.88;;;14.50;;
45944;SDS011;31655;48.972;10.686;2023-05-14T02:01:39;22.52;;;12.30;;
45944;SDS011;31655;48.972;10.686;2023-05-14T02:04:05;22.92;;;13.00;;
45944;SDS011;31655;48.972;10.686;2023-05-14T02:06:31;20.40;;;12.68;;
45944;SDS011;31655;48.972;10.686;2023-05-14T02:08:57;19.13;;;11.98;;
45944;SDS011;31655;48.972;10.686;2023-05-14T02:11:23;26.80;;;14.75;;
45944;SDS011;31655;48.972;10.686;2023-05-14T02:13:50;22.67;;;13.13;;
45944;SDS011;31655;48.972;10.686;2023-05-14T02:16:16;26.45;;;13.85;;
45944;SDS011;31655;48.972;10.686;2023-05-14T02:18:43;18.13;;;12.55;;
45944;SDS011;31655;48.972;10.686;2023-05-14T02:21:08;21.05;;;12.52;;
45944;SDS011;31655;48.972;10.686;2023-05-14T02:23:34;23.77;;;14.85;;
45944;SDS011;31655;48.972;10.686;2023-05-14T02:26:00;25.83;;;14.82;;
45944;SDS011;31655;48.972;10.686;2023-05-14T02:28:26;22.33;;;13.27;;
45944;SDS011;31655;48.972;10.686;2023-05-14T02:30:51;25.80;;;12.63;;
45944;SDS011;31655;48.972;10.686;2023-05-14T02:33:24;20.73;;;12.80;;
45944;SDS011;31655;48.972;10.686;2023-05-14T02:35:49;20.60;;;12.18;;
45944;SDS011;31655;48.972;10.686;2023-05-14T02:38:16;17.70;;;11.85;;
45944;SDS011;31655;48.972;10.686;2023-05-14T02:40:42;16.55;;;11.10;;
45944;SDS011;31655;48.972;10.686;2023-05-14T02:43:08;22.63;;;13.90;;
45944;SDS011;31655;48.972;10.686;2023-05-14T02:45:34;21.30;;;13.57;;
45944;SDS011;31655;48.972;10.686;2023-05-14T02:48:00;18.00;;;11.35;;
45944;SDS011;31655;48.972;10.686;2023-05-14T02:50:26;23.98;;;13.80;;
45944;SDS011;31655;48.972;10.686;2023-05-14T02:52:52;14.50;;;9.85;;
45944;SDS011;31655;48.972;10.686;2023-05-14T02:55:17;18.90;;;10.70;;
45944;SDS011;31655;48.972;10.686;2023-05-14T02:57:43;23.70;;;13.90;;
45944;SDS011;31655;48.972;10.686;2023-05-14T03:00:10;20.73;;;11.80;;
45944;SDS011;31655;48.972;10.686;2023-05-14T03:02:36;14.73;;;9.77;;
45944;SDS011;31655;48.972;10.686;2023-05-14T03:05:02;20.35;;;11.20;;
45944;SDS011;31655;48.972;10.686;2023-05-14T03:07:28;14.85;;;10.43;;
45944;SDS011;31655;48.972;10.686;2023-05-14T03:09:53;17.40;;;10.48;;
45944;SDS011;31655;48.972;10.686;2023-05-14T03:12:19;14.50;;;10.13;;
45944;SDS011;31655;48.972;10.686;2023-05-14T03:14:45;17.38;;;9.40;;
45944;SDS011;31655;48.972;10.686;2023-05-14T03:17:11;16.05;;;9.90;;
45944;SDS011;31655;48.972;10.686;2023-05-14T03:19:37;18.10;;;12.48;;
45944;SDS011;31655;48.972;10.686;2023-05-14T03:22:03;14.60;;;10.73;;
45944;SDS011;31655;48.972;10.686;2023-05-14T03:24:29;15.75;;;9.68;;
45944;SDS011;31655;48.972;10.686;2023-05-14T03:26:55;15.07;;;9.68;;
45944;SDS011;31655;48.972;10.686;2023-05-14T03:29:21;16.17;;;9.52;;
45944;SDS011;31655;48.972;10.686;2023-05-14T03:31:46;12.13;;;9.15;;
45944;SDS011;31655;48.972;10.686;2023-05-14T03:34:12;11.95;;;9.57;;
45944;SDS011;31655;48.972;10.686;2023-05-14T03:36:37;15.60;;;10.50;;
45944;SDS011;31655;48.972;10.686;2023-05-14T03:39:03;17.60;;;11.05;;
45944;SDS011;31655;48.972;10.686;2023-05-14T03:41:31;16.63;;;11.45;;
45944;SDS011;31655;48.972;10.686;2023-05-14T03:43:57;15.30;;;10.93;;
45944;SDS011;31655;48.972;10.686;2023-05-14T03:46:23;16.20;;;10.65;;
45944;SDS011;31655;48.972;10.686;2023-05-14T03:48:48;20.10;;;12.00;;
45944;SDS011;31655;48.972;10.686;2023-05-14T03:51:14;20.45;;;12.75;;
45944;SDS011;31655;48.972;10.686;2023-05-14T03:53:40;19.80;;;11.60;;
45944;SDS011;31655;48.972;10.686;2023-05-14T03:56:06;16.42;;;11.07;;
45944;SDS011;31655;48.972;10.686;2023-05-14T03:58:32;18.50;;;11.23;;
45944;SDS011;31655;48.972;10.686;2023-05-14T04:00:58;19.75;;;11.25;;
45944;SDS011;31655;48.972;10.686;2023-05-14T04:03:24;17.38;;;11.93;;
45944;SDS011;31655;48.972;10.686;2023-05-14T04:05:50;20.85;;;12.27;;
45944;SDS011;31655;48.972;10.686;2023-05-14T04:08:16;19.92;;;12.70;;
45944;SDS011;31655;48.972;10.686;2023-05-14T04:10:42;17.67;;;13.20;;
45944;SDS011;31655;48.972;10.686;2023-05-14T04:13:08;24.05;;;14.15;;
45944;SDS011;31655;48.972;10.686;2023-05-14T04:15:33;20.38;;;13.02;;
45944;SDS011;31655;48.972;10.686;2023-05-14T04:17:59;20.83;;;13.70;;
45944;SDS011;31655;48.972;10.686;2023-05-14T04:20:25;22.80;;;13.63;;
45944;SDS011;31655;48.972;10.686;2023-05-14T04:22:52;25.30;;;15.70;;
45944;SDS011;31655;48.972;10.686;2023-05-14T04:25:18;20.58;;;12.95;;
45944;SDS011;31655;48.972;10.686;2023-05-14T04:27:43;18.90;;;12.88;;
45944;SDS011;31655;48.972;10.686;2023-05-14T04:30:09;20.08;;;12.57;;
45944;SDS011;31655;48.972;10.686;2023-05-14T04:32:35;19.88;;;13.20;;
45944;SDS011;31655;48.972;10.686;2023-05-14T04:35:01;22.70;;;13.00;;
45944;SDS011;31655;48.972;10.686;2023-05-14T04:37:28;21.65;;;13.68;;
45944;SDS011;31655;48.972;10.686;2023-05-14T04:39:54;19.00;;;12.18;;
45944;SDS011;31655;48.972;10.686;2023-05-14T04:42:20;18.58;;;12.75;;
45944;SDS011;31655;48.972;10.686;2023-05-14T04:44:46;19.05;;;12.30;;
45944;SDS011;31655;48.972;10.686;2023-05-14T04:47:12;21.15;;;13.25;;
45944;SDS011;31655;48.972;10.686;2023-05-14T04:49:38;20.45;;;13.13;;
45944;SDS011;31655;48.972;10.686;2023-05-14T04:52:05;23.02;;;13.40;;
45944;SDS011;31655;48.972;10.686;2023-05-14T04:54:30;21.08;;;14.57;;
45944;SDS011;31655;48.972;10.686;2023-05-14T04:56:56;20.45;;;13.27;;
45944;SDS011;31655;48.972;10.686;2023-05-14T04:59:26;20.40;;;12.85;;
45944;SDS011;31655;48.972;10.686;2023-05-14T05:01:53;21.40;;;13.52;;
45944;SDS011;31655;48.972;10.686;2023-05-14T05:04:18;19.00;;;12.63;;
45944;SDS011;31655;48.972;10.686;2023-05-14T05:06:45;19.15;;;12.10;;
45944;SDS011;31655;48.972;10.686;2023-05-14T05:09:10;20.90;;;13.30;;
45944;SDS011;31655;48.972;10.686;2023-05-14T05:11:37;17.92;;;11.60;;
45944;SDS011;31655;48.972;10.686;2023-05-14T05:14:02;22.40;;;13.20;;
45944;SDS011;31655;48.972;10.686;2023-05-14T05:16:28;18.65;;;11.25;;
45944;SDS011;31655;48.972;10.686;2023-05-14T05:18:54;33.00;;;17.13;;
45944;SDS011;31655;48.972;10.686;2023-05-14T05:21:20;63.92;;;30.10;;
45944;SDS011;31655;48.972;10.686;2023-05-14T05:23:46;32.53;;;16.92;;
45944;SDS011;31655;48.972;10.686;2023-05-14T05:26:12;19.35;;;12.95;;
45944;SDS011;31655;48.972;10.686;2023-05-14T05:28:38;16.77;;;11.55;;
45944;SDS011;31655;48.972;10.686;2023-05-14T05:31:04;16.15;;;11.30;;
45944;SDS011;31655;48.972;10.686;2023-05-14T05:33:30;15.98;;;11.52;;
45944;SDS011;31655;48.972;10.686;2023-05-14T05:35:56;19.98;;;14.10;;
45944;SDS011;31655;48.972;10.686;2023-05-14T05:38:21;20.08;;;13.40;;
45944;SDS011;31655;48.972;10.686;2023-05-14T05:40:47;20.83;;;13.70;;
45944;SDS011;31655;48.972;10.686;2023-05-14T05:43:14;18.75;;;12.13;;
45944;SDS011;31655;48.972;10.686;2023-05-14T05:45:39;21.38;;;14.13;;
45944;SDS011;31655;48.972;10.686;2023-05-14T05:48:05;20.77;;;12.55;;
45944;SDS011;31655;48.972;10.686;2023-05-14T05:50:31;15.25;;;12.27;;
45944;SDS011;31655;48.972;10.686;2023-05-14T05:52:57;16.58;;;10.18;;
45944;SDS011;31655;48.972;10.686;2023-05-14T05:55:25;15.60;;;8.65;;
45944;SDS011;31655;48.972;10.686;2023-05-14T05:57:51;12.20;;;7.70;;
45944;SDS011;31655;48.972;10.686;2023-05-14T06:00:18;12.85;;;7.68;;
45944;SDS011;31655;48.972;10.686;2023-05-14T06:02:44;8.60;;;6.28;;
45944;SDS011;31655;48.972;10.686;2023-05-14T06:05:10;10.27;;;7.10;;
45944;SDS011;31655;48.972;10.686;2023-05-14T06:07:36;11.25;;;7.00;;
45944;SDS011;31655;48.972;10.686;2023-05-14T06:10:02;8.82;;;6.30;;
45944;SDS011;31655;48.972;10.686;2023-05-14T06:12:29;8.52;;;5.93;;
45944;SDS011;31655;48.972;10.686;2023-05-14T06:14:54;7.75;;;5.88;;
45944;SDS011;31655;48.972;10.686;2023-05-14T06:17:22;7.40;;;5.38;;
45944;SDS011;31655;48.972;10.686;2023-05-14T06:19:48;8.90;;;5.10;;
45944;SDS011;31655;48.972;10.686;2023-05-14T06:22:14;9.82;;;6.22;;
45944;SDS011;31655;48.972;10.686;2023-05-14T06:24:40;8.05;;;5.35;;
45944;SDS011;31655;48.972;10.686;2023-05-14T06:27:05;6.65;;;4.90;;
45944;SDS011;31655;48.972;10.686;2023-05-14T06:29:31;5.38;;;4.70;;
45944;SDS011;31655;48.972;10.686;2023-05-14T06:32:00;7.10;;;4.80;;
45944;SDS011;31655;48.972;10.686;2023-05-14T06:34:27;7.25;;;4.65;;
45944;SDS011;31655;48.972;10.686;2023-05-14T06:36:53;5.78;;;5.13;;
45944;SDS011;31655;48.972;10.686;2023-05-14T06:39:19;6.28;;;5.45;;
45944;SDS011;31655;48.972;10.686;2023-05-14T06:41:45;6.18;;;5.55;;
45944;SDS011;31655;48.972;10.686;2023-05-14T06:44:11;5.15;;;4.55;;
45944;SDS011;31655;48.972;10.686;2023-05-14T06:46:36;6.55;;;4.65;;
45944;SDS011;31655;48.972;10.686;2023-05-14T06:49:02;6.38;;;5.32;;
45944;SDS011;31655;48.972;10.686;2023-05-14T06:51:28;7.70;;;5.43;;
45944;SDS011;31655;48.972;10.686;2023-05-14T06:53:54;5.63;;;4.75;;
45944;SDS011;31655;48.972;10.686;2023-05-14T06:56:23;7.40;;;5.53;;
45944;SDS011;31655;48.972;10.686;2023-05-14T06:58:49;7.35;;;5.07;;
45944;SDS011;31655;48.972;10.686;2023-05-14T07:01:15;8.50;;;5.55;;
45944;SDS011;31655;48.972;10.686;2023-05-14T07:03:40;8.13;;;5.57;;
45944;SDS011;31655;48.972;10.686;2023-05-14T07:06:06;10.05;;;6.18;;
45944;SDS011;31655;48.972;10.686;2023-05-14T07:08:32;7.85;;;5.53;;
45944;SDS011;31655;48.972;10.686;2023-05-14T07:10:58;7.07;;;5.63;;
45944;SDS011;31655;48.972;10.686;2023-05-14T07:13:24;8.30;;;5.10;;
45944;SDS011;31655;48.972;10.686;2023-05-14T07:15:52;6.20;;;5.45;;
45944;SDS011;31655;48.972;10.686;2023-05-14T07:18:19;7.95;;;7.15;;
45944;SDS011;31655;48.972;10.686;2023-05-14T07:20:45;8.60;;;5.75;;
45944;SDS011;31655;48.972;10.686;2023-05-14T07:23:11;9.82;;;6.10;;
45944;SDS011;31655;48.972;10.686;2023-05-14T07:25:37;6.95;;;5.13;;
45944;SDS011;31655;48.972;10.686;2023-05-14T07:28:03;6.63;;;5.03;;
45944;SDS011;31655;48.972;10.686;2023-05-14T07:30:30;7.60;;;6.03;;
45944;SDS011;31655;48.972;10.686;2023-05-14T07:32:55;5.50;;;4.57;;
45944;SDS011;31655;48.972;10.686;2023-05-14T07:35:21;4.78;;;4.35;;
45944;SDS011;31655;48.972;10.686;2023-05-14T07:37:47;5.50;;;4.80;;
45944;SDS011;31655;48.972;10.686;2023-05-14T07:40:14;13.38;;;5.97;;
45944;SDS011;31655;48.972;10.686;2023-05-14T07:42:39;4.95;;;4.45;;
45944;SDS011;31655;48.972;10.686;2023-05-14T07:45:06;4.90;;;4.40;;
45944;SDS011;31655;48.972;10.686;2023-05-14T07:47:32;4.60;;;4.13;;
45944;SDS011;31655;48.972;10.686;2023-05-14T07:49:58;5.30;;;4.25;;
45944;SDS011;31655;48.972;10.686;2023-05-14T07:52:24;7.47;;;5.07;;
45944;SDS011;31655;48.972;10.686;2023-05-14T07:54:50;11.77;;;6.60;;
45944;SDS011;31655;48.972;10.686;2023-05-14T07:57:17;7.63;;;5.13;;
45944;SDS011;31655;48.972;10.686;2023-05-14T07:59:43;5.03;;;4.53;;
45944;SDS011;31655;48.972;10.686;2023-05-14T08:02:09;6.55;;;4.97;;
45944;SDS011;31655;48.972;10.686;2023-05-14T08:04:36;6.18;;;4.70;;
45944;SDS011;31655;48.972;10.686;2023-05-14T08:07:02;7.35;;;5.38;;
45944;SDS011;31655;48.972;10.686;2023-05-14T08:09:28;5.93;;;4.80;;
45944;SDS011;31655;48.972;10.686;2023-05-14T08:11:54;8.18;;;5.50;;
45944;SDS011;31655;48.972;10.686;2023-05-14T08:14:20;6.38;;;5.50;;
45944;SDS011;31655;48.972;10.686;2023-05-14T08:16:46;5.65;;;5.03;;
45944;SDS011;31655;48.972;10.686;2023-05-14T08:19:12;6.70;;;4.45;;
45944;SDS011;31655;48.972;10.686;2023-05-14T08:21:38;11.57;;;5.55;;
45944;SDS011;31655;48.972;10.686;2023-05-14T08:24:04;7.75;;;4.45;;
45944;SDS011;31655;48.972;10.686;2023-05-14T08:26:30;5.25;;;4.28;;
45944;SDS011;31655;48.972;10.686;2023-05-14T08:28:56;9.05;;;4.60;;
45944;SDS011;31655;48.972;10.686;2023-05-14T08:31:22;4.65;;;4.03;;
45944;SDS011;31655;48.972;10.686;2023-05-14T08:33:48;6.35;;;4.35;;
45944;SDS011;31655;48.972;10.686;2023-05-14T08:36:14;5.10;;;4.47;;
45944;SDS011;31655;48.972;10.686;2023-05-14T08:38:40;6.90;;;4.88;;
45944;SDS011;31655;48.972;10.686;2023-05-14T08:41:06;8.25;;;4.70;;
45944;SDS011;31655;48.972;10.686;2023-05-14T08:43:37;4.60;;;3.95;;
45944;SDS011;31655;48.972;10.686;2023-05-14T08:46:09;7.75;;;5.65;;
45944;SDS011;31655;48.972;10.686;2023-05-14T08:48:37;7.25;;;3.97;;
45944;SDS011;31655;48.972;10.686;2023-05-14T08:51:06;7.07;;;4.88;;
45944;SDS011;31655;48.972;10.686;2023-05-14T08:53:33;8.38;;;5.50;;
45944;SDS011;31655;48.972;10.686;2023-05-14T08:56:00;12.60;;;8.05;;
45944;SDS011;31655;48.972;10.686;2023-05-14T08:58:25;7.13;;;4.57;;
45944;SDS011;31655;48.972;10.686;2023-05-14T09:00:52;8.02;;;5.47;;
45944;SDS011;31655;48.972;10.686;2023-05-14T09:03:19;7.47;;;5.45;;
45944;SDS011;31655;48.972;10.686;2023-05-14T09:05:48;4.25;;;3.83;;
45944;SDS011;31655;48.972;10.686;2023-05-14T09:08:15;4.07;;;3.65;;
45944;SDS011;31655;48.972;10.686;2023-05-14T09:10:41;6.32;;;4.22;;
45944;SDS011;31655;48.972;10.686;2023-05-14T09:13:07;5.90;;;3.58;;
45944;SDS011;31655;48.972;10.686;2023-05-14T09:15:34;12.35;;;7.10;;
45944;SDS011;31655;48.972;10.686;2023-05-14T09:18:05;6.57;;;4.40;;
45944;SDS011;31655;48.972;10.686;2023-05-14T09:20:31;6.25;;;4.90;;
45944;SDS011;31655;48.972;10.686;2023-05-14T09:22:57;7.05;;;4.15;;
45944;SDS011;31655;48.972;10.686;2023-05-14T09:25:26;5.78;;;3.55;;
45944;SDS011;31655;48.972;10.686;2023-05-14T09:27:56;4.10;;;3.67;;
45944;SDS011;31655;48.972;10.686;2023-05-14T09:30:22;4.25;;;3.30;;
45944;SDS011;31655;48.972;10.686;2023-05-14T09:32:49;3.75;;;2.92;;
45944;SDS011;31655;48.972;10.686;2023-05-14T09:35:20;5.95;;;3.63;;
45944;SDS011;31655;48.972;10.686;2023-05-14T09:37:49;7.40;;;4.47;;
45944;SDS011;31655;48.972;10.686;2023-05-14T09:40:16;4.05;;;3.50;;
45944;SDS011;31655;48.972;10.686;2023-05-14T09:42:43;6.03;;;4.18;;
45944;SDS011;31655;48.972;10.686;2023-05-14T09:45:10;3.20;;;2.90;;
45944;SDS011;31655;48.972;10.686;2023-05-14T09:47:36;3.45;;;3.08;;
45944;SDS011;31655;48.972;10.686;2023-05-14T09:50:03;3.53;;;3.22;;
45944;SDS011;31655;48.972;10.686;2023-05-14T09:52:30;3.97;;;2.95;;
45944;SDS011;31655;48.972;10.686;2023-05-14T09:54:56;3.15;;;2.85;;
45944;SDS011;31655;48.972;10.686;2023-05-14T09:57:22;4.40;;;3.72;;
45944;SDS011;31655;48.972;10.686;2023-05-14T09:59:48;3.03;;;2.72;;
45944;SDS011;31655;48.972;10.686;2023-05-14T10:05:05;4.63;;;3.80;;
45944;SDS011;31655;48.972;10.686;2023-05-14T10:07:53;4.20;;;3.78;;
45944;SDS011;31655;48.972;10.686;2023-05-14T10:10:18;3.80;;;3.42;;
45944;SDS011;31655;48.972;10.686;2023-05-14T10:12:46;3.47;;;2.78;;
45944;SDS011;31655;48.972;10.686;2023-05-14T10:15:18;3.75;;;3.22;;
45944;SDS011;31655;48.972;10.686;2023-05-14T10:17:48;3.63;;;2.95;;
45944;SDS011;31655;48.972;10.686;2023-05-14T10:20:16;4.00;;;3.00;;
45944;SDS011;31655;48.972;10.686;2023-05-14T10:22:42;4.47;;;3.08;;
45944;SDS011;31655;48.972;10.686;2023-05-14T10:25:08;3.88;;;3.13;;
45944;SDS011;31655;48.972;10.686;2023-05-14T10:27:34;3.45;;;3.00;;
45944;SDS011;31655;48.972;10.686;2023-05-14T10:30:01;3.53;;;3.05;;
45944;SDS011;31655;48.972;10.686;2023-05-14T10:32:31;2.90;;;2.60;;
45944;SDS011;31655;48.972;10.686;2023-05-14T10:34:57;3.20;;;2.42;;
45944;SDS011;31655;48.972;10.686;2023-05-14T10:37:25;3.90;;;2.80;;
45944;SDS011;31655;48.972;10.686;2023-05-14T10:39:52;4.78;;;3.22;;
45944;SDS011;31655;48.972;10.686;2023-05-14T10:42:25;3.35;;;3.00;;
45944;SDS011;31655;48.972;10.686;2023-05-14T10:44:53;3.20;;;2.88;;
45944;SDS011;31655;48.972;10.686;2023-05-14T10:47:20;2.75;;;2.35;;
45944;SDS011;31655;48.972;10.686;2023-05-14T10:49:47;2.78;;;2.50;;
45944;SDS011;31655;48.972;10.686;2023-05-14T10:52:15;3.38;;;2.90;;
45944;SDS011;31655;48.972;10.686;2023-05-14T10:54:47;2.50;;;2.30;;
45944;SDS011;31655;48.972;10.686;2023-05-14T10:57:14;3.47;;;2.38;;
45944;SDS011;31655;48.972;10.686;2023-05-14T10:59:42;4.65;;;2.25;;
45944;SDS011;31655;48.972;10.686;2023-05-14T11:02:18;2.97;;;2.17;;
45944;SDS011;31655;48.972;10.686;2023-05-14T11:05:04;2.53;;;2.33;;
45944;SDS011;31655;48.972;10.686;2023-05-14T11:07:33;2.50;;;2.17;;
45944;SDS011;31655;48.972;10.686;2023-05-14T11:10:02;2.83;;;2.00;;
45944;SDS011;31655;48.972;10.686;2023-05-14T11:12:29;4.35;;;2.20;;
45944;SDS011;31655;48.972;10.686;2023-05-14T11:14:55;9.45;;;2.53;;
45944;SDS011;31655;48.972;10.686;2023-05-14T11:17:23;3.28;;;2.95;;
45944;SDS011;31655;48.972;10.686;2023-05-14T11:19:53;3.20;;;2.70;;
45944;SDS011;31655;48.972;10.686;2023-05-14T11:22:19;4.38;;;3.33;;
45944;SDS011;31655;48.972;10.686;2023-05-14T11:24:45;4.53;;;2.95;;
45944;SDS011;31655;48.972;10.686;2023-05-14T11:27:11;4.20;;;3.20;;
45944;SDS011;31655;48.972;10.686;2023-05-14T11:29:37;4.78;;;3.45;;
45944;SDS011;31655;48.972;10.686;2023-05-14T11:32:03;6.45;;;3.97;;
45944;SDS011;31655;48.972;10.686;2023-05-14T11:34:30;3.63;;;3.15;;
45944;SDS011;31655;48.972;10.686;2023-05-14T11:36:56;3.75;;;2.75;;
45944;SDS011;31655;48.972;10.686;2023-05-14T11:39:22;3.90;;;3.05;;
45944;SDS011;31655;48.972;10.686;2023-05-14T11:41:48;8.00;;;3.10;;
45944;SDS011;31655;48.972;10.686;2023-05-14T11:44:14;4.13;;;3.20;;
45944;SDS011;31655;48.972;10.686;2023-05-14T11:46:39;3.75;;;3.00;;
45944;SDS011;31655;48.972;10.686;2023-05-14T11:49:05;4.28;;;3.08;;
45944;SDS011;31655;48.972;10.686;2023-05-14T11:51:31;6.07;;;3.20;;
45944;SDS011;31655;48.972;10.686;2023-05-14T11:53:57;5.40;;;3.67;;
45944;SDS011;31655;48.972;10.686;2023-05-14T11:56:23;6.20;;;3.50;;
45944;SDS011;31655;48.972;10.686;2023-05-14T11:58:54;5.30;;;3.28;;
45944;SDS011;31655;48.972;10.686;2023-05-14T12:01:21;3.67;;;2.80;;
45944;SDS011;31655;48.972;10.686;2023-05-14T12:03:47;5.05;;;3.75;;
45944;SDS011;31655;48.972;10.686;2023-05-14T12:06:14;4.03;;;3.28;;
45944;SDS011;31655;48.972;10.686;2023-05-14T12:08:40;6.07;;;3.38;;
45944;SDS011;31655;48.972;10.686;2023-05-14T12:11:06;4.18;;;3.50;;
45944;SDS011;31655;48.972;10.686;2023-05-14T12:13:33;4.57;;;3.30;;
45944;SDS011;31655;48.972;10.686;2023-05-14T12:15:59;4.38;;;3.05;;
45944;SDS011;31655;48.972;10.686;2023-05-14T12:18:27;5.00;;;3.50;;
45944;SDS011;31655;48.972;10.686;2023-05-14T12:20:54;3.05;;;2.63;;
45944;SDS011;31655;48.972;10.686;2023-05-14T12:23:27;5.20;;;3.28;;
45944;SDS011;31655;48.972;10.686;2023-05-14T12:25:54;4.15;;;3.42;;
45944;SDS011;31655;48.972;10.686;2023-05-14T12:28:21;4.68;;;3.38;;
45944;SDS011;31655;48.972;10.686;2023-05-14T12:30:47;4.95;;;3.40;;
45944;SDS011;31655;48.972;10.686;2023-05-14T12:33:13;5.60;;;3.45;;
45944;SDS011;31655;48.972;10.686;2023-05-14T12:35:40;3.90;;;3.53;;
45944;SDS011;31655;48.972;10.686;2023-05-14T12:38:06;3.83;;;3.20;;
45944;SDS011;31655;48.972;10.686;2023-05-14T12:40:32;3.00;;;2.70;;
45944;SDS011;31655;48.972;10.686;2023-05-14T12:42:58;4.50;;;2.90;;
45944;SDS011;31655;48.972;10.686;2023-05-14T12:45:24;3.63;;;3.00;;
45944;SDS011;31655;48.972;10.686;2023-05-14T12:47:49;4.93;;;3.67;;
45944;SDS011;31655;48.972;10.686;2023-05-14T12:50:15;3.97;;;3.58;;
45944;SDS011;31655;48.972;10.686;2023-05-14T12:52:41;4.00;;;3.38;;
45944;SDS011;31655;48.972;10.686;2023-05-14T12:55:07;5.53;;;3.40;;
45944;SDS011;31655;48.972;10.686;2023-05-14T12:57:33;5.50;;;3.53;;
45944;SDS011;31655;48.972;10.686;2023-05-14T12:59:59;7.10;;;3.67;;
45944;SDS011;31655;48.972;10.686;2023-05-14T13:02:25;4.55;;;3.92;;
45944;SDS011;31655;48.972;10.686;2023-05-14T13:04:51;5.65;;;4.18;;
45944;SDS011;31655;48.972;10.686;2023-05-14T13:07:17;6.05;;;4.20;;
45944;SDS011;31655;48.972;10.686;2023-05-14T13:09:43;5.80;;;3.80;;
45944;SDS011;31655;48.972;10.686;2023-05-14T13:12:08;6.35;;;4.35;;
45944;SDS011;31655;48.972;10.686;2023-05-14T13:14:34;5.53;;;4.32;;
45944;SDS011;31655;48.972;10.686;2023-05-14T13:17:00;6.93;;;5.15;;
45944;SDS011;31655;48.972;10.686;2023-05-14T13:19:26;7.00;;;4.75;;
45944;SDS011;31655;48.972;10.686;2023-05-14T13:21:52;5.85;;;3.83;;
45944;SDS011;31655;48.972;10.686;2023-05-14T13:24:18;6.28;;;3.95;;
45944;SDS011;31655;48.972;10.686;2023-05-14T13:26:44;4.97;;;4.05;;
45944;SDS011;31655;48.972;10.686;2023-05-14T13:29:10;4.50;;;4.05;;
45944;SDS011;31655;48.972;10.686;2023-05-14T13:31:36;6.20;;;4.13;;
45944;SDS011;31655;48.972;10.686;2023-05-14T13:34:02;7.13;;;3.78;;
45944;SDS011;31655;48.972;10.686;2023-05-14T13:36:28;6.15;;;4.32;;
45944;SDS011;31655;48.972;10.686;2023-05-14T13:38:54;4.88;;;4.13;;
45944;SDS011;31655;48.972;10.686;2023-05-14T13:41:20;5.78;;;4.30;;
45944;SDS011;31655;48.972;10.686;2023-05-14T13:43:46;8.68;;;4.43;;
45944;SDS011;31655;48.972;10.686;2023-05-14T13:46:12;6.18;;;4.05;;
45944;SDS011;31655;48.972;10.686;2023-05-14T13:48:38;5.85;;;4.30;;
45944;SDS011;31655;48.972;10.686;2023-05-14T13:51:04;5.60;;;4.07;;
45944;SDS011;31655;48.972;10.686;2023-05-14T13:53:30;5.15;;;3.78;;
45944;SDS011;31655;48.972;10.686;2023-05-14T13:55:56;4.97;;;4.10;;
45944;SDS011;31655;48.972;10.686;2023-05-14T13:58:24;5.18;;;3.83;;
45944;SDS011;31655;48.972;10.686;2023-05-14T14:00:50;4.25;;;3.20;;
45944;SDS011;31655;48.972;10.686;2023-05-14T14:03:16;6.18;;;4.18;;
45944;SDS011;31655;48.972;10.686;2023-05-14T14:05:42;19.38;;;4.72;;
45944;SDS011;31655;48.972;10.686;2023-05-14T14:08:08;4.22;;;3.35;;
45944;SDS011;31655;48.972;10.686;2023-05-14T14:10:34;5.57;;;4.13;;
45944;SDS011;31655;48.972;10.686;2023-05-14T14:13:00;4.57;;;3.67;;
45944;SDS011;31655;48.972;10.686;2023-05-14T14:15:26;5.60;;;3.75;;
45944;SDS011;31655;48.972;10.686;2023-05-14T14:17:52;5.72;;;4.28;;
45944;SDS011;31655;48.972;10.686;2023-05-14T14:20:18;5.80;;;4.00;;
45944;SDS011;31655;48.972;10.686;2023-05-14T14:22:44;4.63;;;3.95;;
45944;SDS011;31655;48.972;10.686;2023-05-14T14:25:10;7.13;;;4.43;;